Time;durP1;ratioP1;P1;durP2;ratioP2;P2;SDS_P1;SDS_P2;PMS_P1;PMS_P2;Temp;Humidity;BMP_temperature;BMP_pressure;BME280_temperature;BME280_humidity;BME280_pressure;Samples;Min_cycle;Max_cycle;Signal;HPM_P1;HPM_P2
2023/06/15 00:02:15;;;;;;;24.50;10.70;;;;;;;-128.00;-1.00;-1.00;18485;288;7506094;-33
2023/06/15 00:04:40;;;;;;;18.00;13.00;;;;;;;-128.00;-1.00;-1.00;18464;336;7504796;-32
2023/06/15 00:07:07;;;;;;;42.90;15.30;;;;;;;-128.00;-1.00;-1.00;18869;295;7504741;-33
2023/06/15 00:09:33;;;;;;;38.00;17.00;;;;;;;-128.00;-1.00;-1.00;18896;295;7504518;-36
2023/06/15 00:12:00;;;;;;;37.10;13.30;;;;;;;-128.00;-1.00;-1.00;18863;296;7504489;-36
2023/06/15 00:14:26;;;;;;;26.80;11.30;;;;;;;-128.00;-1.00;-1.00;18893;336;7504973;-32
2023/06/15 00:16:52;;;;;;;48.30;13.90;;;;;;;-128.00;-1.00;-1.00;18871;340;7504452;-32
2023/06/15 00:19:19;;;;;;;27.10;11.00;;;;;;;-128.00;-1.00;-1.00;18878;288;7504617;-31
2023/06/15 00:21:47;;;;;;;11.60;8.30;;;;;;;-128.00;-1.00;-1.00;18458;347;7506491;-31
2023/06/15 00:24:14;;;;;;;28.40;9.50;;;;;;;-128.00;-1.00;-1.00;18466;307;7506495;-31
2023/06/15 00:26:40;;;;;;;113.40;16.80;;;;;;;-128.00;-1.00;-1.00;18478;336;7504622;-31
2023/06/15 00:29:05;;;;;;;29.80;13.50;;;;;;;-128.00;-1.00;-1.00;18480;336;7506261;-35
2023/06/15 00:31:33;;;;;;;17.80;11.30;;;;;;;-128.00;-1.00;-1.00;18908;288;7504606;-31
2023/06/15 00:33:59;;;;;;;49.00;14.70;;;;;;;-128.00;-1.00;-1.00;18484;288;7504380;-38
2023/06/15 00:36:25;;;;;;;34.10;14.50;;;;;;;-128.00;-1.00;-1.00;18880;288;7504693;-31
2023/06/15 01:17:23;;;;;;;30.20;18.60;;;;;;;-100.07;19.20;19887.64;19588;295;8044269;-31
2023/06/15 01:19:54;;;;;;;49.30;13.80;;;;;;;-128.00;-1.00;-1.00;18872;288;7504317;-31
2023/06/15 01:23:31;;;;;;;17.10;11.40;;;;;;;;;;100874;300;543289;-32
2023/06/15 01:26:00;;;;;;;110.50;17.20;;;;;;;;;;101298;302;22929;-33
2023/06/15 01:28:25;;;;;;;49.90;16.90;;;;;;;;;;101407;302;24229;-31
2023/06/15 01:30:51;;;;;;;45.50;13.30;;;;;;;;;;101275;302;22980;-31
2023/06/15 01:33:17;;;;;;;49.50;15.60;;;;;;;;;;100922;302;22682;-31
2023/06/15 01:35:43;;;;;;;59.40;16.50;;;;;;;;;;101253;302;628876;-32
2023/06/15 01:38:09;;;;;;;35.00;11.00;;;;;;;;;;101120;300;24187;-35
2023/06/15 01:40:35;;;;;;;18.50;12.40;;;;;;;;;;101073;300;22889;-37
2023/06/15 01:43:00;;;;;;;30.70;9.70;;;;;;;;;;101359;300;22577;-34
2023/06/15 01:45:26;;;;;;;16.00;12.30;;;;;;;;;;101045;301;22891;-38
2023/06/15 01:47:52;;;;;;;20.40;12.60;;;;;;;;;;101359;300;22577;-33
2023/06/15 01:50:17;;;;;;;18.90;12.30;;;;;;;;;;101333;300;22890;-33
2023/06/15 01:52:43;;;;;;;42.10;11.00;;;;;;;;;;101259;289;24245;-31
2023/06/15 01:55:08;;;;;;;25.60;11.80;;;;;;;;;;101064;300;22581;-35
2023/06/15 01:57:35;;;;;;;28.10;12.90;;;;;;;;;;101252;289;24148;-31
2023/06/15 02:00:01;;;;;;;26.90;14.10;;;;;;;;;;101372;300;24167;-31
2023/06/15 02:02:26;;;;;;;23.00;11.40;;;;;;;;;;101375;289;24149;-31
2023/06/15 02:04:51;;;;;;;20.80;11.80;;;;;;;;;;101431;289;22998;-31
2023/06/15 02:07:17;;;;;;;19.30;10.70;;;;;;;;;;101386;300;22889;-35
2023/06/15 02:09:43;;;;;;;20.50;11.40;;;;;;;;;;101054;289;22888;-35
2023/06/15 02:12:09;;;;;;;16.10;11.00;;;;;;;;;;101020;289;24149;-31
2023/06/15 02:14:35;;;;;;;34.80;11.90;;;;;;;;;;101318;289;24363;-34
2023/06/15 02:17:00;;;;;;;33.20;12.40;;;;;;;;;;101131;289;24271;-31
2023/06/15 02:19:27;;;;;;;26.70;12.10;;;;;;;;;;101419;300;22580;-37
2023/06/15 02:21:53;;;;;;;18.50;13.70;;;;;;;;;;101042;289;24122;-36
2023/06/15 02:24:19;;;;;;;53.80;12.30;;;;;;;;;;101203;289;24151;-31
2023/06/15 02:26:45;;;;;;;19.90;13.50;;;;;;;;;;101223;289;24149;-30
2023/06/15 02:29:11;;;;;;;14.60;10.80;;;;;;;;;;101476;289;24270;-31
2023/06/15 02:31:37;;;;;;;16.90;11.60;;;;;;;;;;101150;289;22580;-37
2023/06/15 02:34:03;;;;;;;20.80;10.90;;;;;;;;;;101041;300;22892;-32
2023/06/15 02:36:28;;;;;;;25.90;10.50;;;;;;;;;;101262;300;23039;-30
2023/06/15 02:38:54;;;;;;;11.50;9.50;;;;;;;;;;101064;300;22669;-33
2023/06/15 02:41:20;;;;;;;19.70;10.10;;;;;;;;;;101430;300;24303;-37
2023/06/15 02:43:45;;;;;;;23.20;11.60;;;;;;;;;;101057;301;24120;-35
2023/06/15 02:46:11;;;;;;;18.10;14.40;;;;;;;;;;101103;300;24282;-31
2023/06/15 02:48:37;;;;;;;21.30;12.90;;;;;;;;;;101122;300;22829;-32
2023/06/15 02:51:03;;;;;;;40.80;14.50;;;;;;;;;;101141;300;22583;-33
2023/06/15 02:53:28;;;;;;;9.10;7.80;;;;;;;;;;100998;300;24244;-31
2023/06/15 02:55:54;;;;;;;16.40;11.20;;;;;;;;;;101108;300;24335;-41
2023/06/15 02:58:20;;;;;;;16.00;10.60;;;;;;;;;;101409;300;22889;-30
2023/06/15 03:00:49;;;;;;;15.20;10.90;;;;;;;;;;101136;300;22889;-31
2023/06/15 03:03:22;;;;;;;16.00;12.40;;;;;;;;;;101347;300;22922;-35
2023/06/15 03:05:47;;;;;;;;;;;;;;;;;;100997;300;22852;-35
2023/06/15 03:08:14;;;;;;;22.10;11.80;;;;;;;;;;101078;300;22710;-31
2023/06/15 03:10:39;;;;;;;19.70;14.10;;;;;;;;;;101265;300;24152;-35
2023/06/15 03:13:05;;;;;;;26.30;8.20;;;;;;;;;;101050;300;22576;-37
2023/06/15 03:15:30;;;;;;;15.50;7.40;;;;;;;;;;101282;301;22886;-31
2023/06/15 03:17:56;;;;;;;52.50;8.40;;;;;;;;;;101164;301;22979;-36
2023/06/15 03:20:21;;;;;;;32.20;13.00;;;;;;;;;;101229;301;22849;-31
2023/06/15 03:22:49;;;;;;;14.40;11.50;;;;;;;;;;101298;301;22853;-33
2023/06/15 03:25:14;;;;;;;24.70;10.60;;;;;;;;;;101157;300;24270;-31
2023/06/15 03:27:40;;;;;;;16.40;8.50;;;;;;;;;;101342;300;23017;-33
2023/06/15 03:30:09;;;;;;;12.60;10.20;;;;;;;;;;101394;301;22595;-32
2023/06/15 03:32:34;;;;;;;13.10;11.40;;;;;;;;;;101077;301;22887;-33
2023/06/15 03:35:00;;;;;;;22.60;14.20;;;;;;;;;;101269;301;22892;-35
2023/06/15 03:37:25;;;;;;;38.50;11.20;;;;;;;;;;101368;300;22892;-35
2023/06/15 03:39:51;;;;;;;21.30;9.10;;;;;;;;;;101156;300;24269;-34
2023/06/15 03:42:16;;;;;;;23.50;11.80;;;;;;;;;;101112;300;22816;-37
2023/06/15 03:44:42;;;;;;;15.10;10.90;;;;;;;;;;101371;300;24184;-35
2023/06/15 03:47:07;;;;;;;15.00;9.50;;;;;;;;;;101418;301;22890;-34
2023/06/15 03:49:33;;;;;;;19.60;12.70;;;;;;;;;;101190;300;24149;-36
2023/06/15 03:51:59;;;;;;;16.90;10.80;;;;;;;;;;101137;289;22649;-31
2023/06/15 03:54:24;;;;;;;19.70;11.90;;;;;;;;;;101150;300;22683;-34
2023/06/15 03:56:50;;;;;;;18.00;10.90;;;;;;;;;;101364;300;22581;-35
2023/06/15 03:59:15;;;;;;;23.90;9.80;;;;;;;;;;101158;300;24152;-35
2023/06/15 04:01:42;;;;;;;27.20;9.10;;;;;;;;;;100992;300;24264;-31
2023/06/15 04:04:08;;;;;;;20.50;12.60;;;;;;;;;;101201;300;22577;-33
2023/06/15 04:06:35;;;;;;;13.90;11.00;;;;;;;;;;101188;301;22663;-31
2023/06/15 04:09:01;;;;;;;48.50;11.60;;;;;;;;;;101103;300;22886;-31
2023/06/15 04:11:27;;;;;;;20.70;13.20;;;;;;;;;;101361;301;25237;-34
2023/06/15 04:13:52;;;;;;;16.40;11.00;;;;;;;;;;101211;301;22946;-40
2023/06/15 04:16:18;;;;;;;21.20;12.60;;;;;;;;;;101118;300;22675;-32
2023/06/15 04:18:43;;;;;;;15.60;10.90;;;;;;;;;;101297;300;23057;-32
2023/06/15 04:21:09;;;;;;;23.50;12.20;;;;;;;;;;101056;300;22889;-35
2023/06/15 04:23:36;;;;;;;15.10;11.90;;;;;;;;;;101449;297;22577;-32
2023/06/15 04:26:03;;;;;;;15.10;12.50;;;;;;;;;;101456;285;25156;-34
2023/06/15 04:28:28;;;;;;;17.40;12.30;;;;;;;;;;101378;297;24243;-34
2023/06/15 04:31:05;;;;;;;9.60;8.40;;;;;;;;;;101403;297;24117;-35
2023/06/15 04:33:32;;;;;;;11.90;9.90;;;;;;;;;;101521;297;23252;-30
2023/06/15 04:35:57;;;;;;;12.20;10.00;;;;;;;;;;101360;297;24362;-32
2023/06/15 04:38:23;;;;;;;19.60;11.60;;;;;;;;;;101425;297;24142;-41
2023/06/15 04:40:48;;;;;;;10.90;8.60;;;;;;;;;;101335;297;24245;-35
2023/06/15 04:43:14;;;;;;;19.70;15.30;;;;;;;;;;101350;297;22935;-35
2023/06/15 04:45:39;;;;;;;16.80;12.50;;;;;;;;;;101473;297;24151;-32
2023/06/15 04:48:06;;;;;;;12.70;10.40;;;;;;;;;;101319;297;24142;-35
2023/06/15 04:50:32;;;;;;;16.50;13.00;;;;;;;;;;101517;297;22665;-31
2023/06/15 04:52:58;;;;;;;25.70;11.50;;;;;;;;;;101475;298;24148;-34
2023/06/15 04:55:23;;;;;;;11.50;8.90;;;;;;;;;;101315;298;24299;-31
2023/06/15 04:57:49;;;;;;;11.90;10.60;;;;;;;;;;101514;298;24291;-31
2023/06/15 05:00:15;;;;;;;16.20;11.20;;;;;;;;;;101395;298;24249;-32
2023/06/15 05:02:40;;;;;;;17.50;11.90;;;;;;;;;;101467;297;22852;-35
2023/06/15 05:05:06;;;;;;;13.70;11.50;;;;;;;;;;101424;298;22888;-35
2023/06/15 05:07:31;;;;;;;10.80;9.70;;;;;;;;;;101385;294;24262;-31
2023/06/15 05:09:57;;;;;;;11.20;9.00;;;;;;;;;;101344;286;24132;-35
2023/06/15 05:12:22;;;;;;;12.10;10.60;;;;;;;;;;101416;297;22579;-37
2023/06/15 05:14:48;;;;;;;10.50;9.30;;;;;;;;;;101439;298;22578;-34
2023/06/15 05:17:13;;;;;;;12.50;11.20;;;;;;;;;;101345;298;24264;-34
2023/06/15 05:19:39;;;;;;;14.10;11.40;;;;;;;;;;101320;297;24261;-31
2023/06/15 05:22:05;;;;;;;21.40;12.20;;;;;;;;;;101429;286;23036;-40
2023/06/15 05:24:31;;;;;;;12.50;10.20;;;;;;;;;;101414;286;23014;-31
2023/06/15 05:26:57;;;;;;;12.80;9.40;;;;;;;;;;101479;298;22809;-35
2023/06/15 05:29:23;;;;;;;12.60;10.00;;;;;;;;;;101373;298;22993;-37
2023/06/15 05:31:48;;;;;;;11.30;9.20;;;;;;;;;;101366;298;22882;-32
2023/06/15 05:34:13;;;;;;;13.50;10.30;;;;;;;;;;101323;286;23079;-31
2023/06/15 05:36:39;;;;;;;10.10;9.00;;;;;;;;;;101381;298;24264;-35
2023/06/15 05:39:06;;;;;;;11.10;8.90;;;;;;;;;;101265;299;22542;-32
2023/06/15 05:41:31;;;;;;;9.30;7.90;;;;;;;;;;101444;298;24209;-33
2023/06/15 05:43:58;;;;;;;9.90;8.60;;;;;;;;;;101252;298;22707;-36
2023/06/15 05:46:23;;;;;;;11.60;10.40;;;;;;;;;;101351;298;22580;-30
2023/06/15 05:48:49;;;;;;;9.20;8.40;;;;;;;;;;101384;298;24171;-33
2023/06/15 05:51:15;;;;;;;8.80;7.70;;;;;;;;;;101413;298;23031;-32
2023/06/15 05:53:40;;;;;;;9.60;8.00;;;;;;;;;;101340;298;23011;-35
2023/06/15 05:56:06;;;;;;;9.20;8.10;;;;;;;;;;101366;298;22888;-32
2023/06/15 05:58:31;;;;;;;6.60;5.90;;;;;;;;;;101386;298;22914;-33
2023/06/15 06:00:57;;;;;;;8.50;7.10;;;;;;;;;;101301;298;22988;-36
2023/06/15 06:03:22;;;;;;;7.20;6.20;;;;;;;;;;101272;298;24153;-37
2023/06/15 06:05:47;;;;;;;14.30;8.60;;;;;;;;;;101348;298;22614;-37
2023/06/15 06:08:13;;;;;;;9.10;6.50;;;;;;;;;;101396;285;22641;-36
2023/06/15 06:10:39;;;;;;;8.50;7.00;;;;;;;;;;101435;298;22758;-31
2023/06/15 06:13:05;;;;;;;8.20;7.40;;;;;;;;;;101349;298;22962;-31
2023/06/15 06:15:30;;;;;;;7.60;6.80;;;;;;;;;;101384;298;22852;-34
2023/06/15 06:17:56;;;;;;;5.70;5.10;;;;;;;;;;101383;298;25237;-32
2023/06/15 06:20:21;;;;;;;9.20;7.90;;;;;;;;;;101442;297;22577;-35
2023/06/15 06:22:46;;;;;;;7.90;7.10;;;;;;;;;;101363;298;22579;-35
2023/06/15 06:25:13;;;;;;;7.70;6.20;;;;;;;;;;101232;297;22575;-34
2023/06/15 06:27:38;;;;;;;6.60;6.00;;;;;;;;;;101433;298;22675;-36
2023/06/15 06:30:04;;;;;;;7.10;6.40;;;;;;;;;;101452;297;22673;-35
2023/06/15 06:32:30;;;;;;;6.00;5.40;;;;;;;;;;101401;298;22579;-35
2023/06/15 06:34:56;;;;;;;7.80;5.40;;;;;;;;;;101383;298;22577;-31
2023/06/15 06:37:22;;;;;;;4.10;3.70;;;;;;;;;;101382;298;22580;-35
2023/06/15 06:39:47;;;;;;;5.10;3.90;;;;;;;;;;101349;298;22671;-34
2023/06/15 06:42:13;;;;;;;6.00;5.40;;;;;;;;;;101345;298;22639;-33
2023/06/15 06:44:38;;;;;;;6.40;4.90;;;;;;;;;;101407;297;22685;-35
2023/06/15 06:47:04;;;;;;;7.10;4.70;;;;;;;;;;101238;298;22576;-30
2023/06/15 06:49:30;;;;;;;4.70;4.00;;;;;;;;;;101261;298;25152;-30
2023/06/15 06:51:55;;;;;;;4.30;3.40;;;;;;;;;;101270;298;22676;-35
2023/06/15 06:54:21;;;;;;;4.40;3.90;;;;;;;;;;101339;297;22579;-35
2023/06/15 06:56:46;;;;;;;3.90;3.50;;;;;;;;;;101424;297;22885;-35
2023/06/15 06:59:12;;;;;;;3.70;3.20;;;;;;;;;;101305;298;24066;-38
2023/06/15 07:01:37;;;;;;;5.20;4.50;;;;;;;;;;101378;298;23125;-31
2023/06/15 07:04:03;;;;;;;4.50;3.90;;;;;;;;;;101340;298;24360;-32
2023/06/15 07:06:29;;;;;;;4.70;3.30;;;;;;;;;;101415;298;24208;-32
2023/06/15 07:08:54;;;;;;;4.20;3.50;;;;;;;;;;101361;298;22993;-32
2023/06/15 07:11:20;;;;;;;3.40;3.10;;;;;;;;;;101390;298;22667;-32
2023/06/15 07:13:45;;;;;;;3.00;2.70;;;;;;;;;;101367;297;23010;-35
2023/06/15 07:16:11;;;;;;;3.60;2.80;;;;;;;;;;101397;298;24149;-31
2023/06/15 07:18:37;;;;;;;5.30;4.70;;;;;;;;;;101410;298;24134;-35
2023/06/15 07:21:02;;;;;;;5.40;5.00;;;;;;;;;;101318;298;22722;-36
2023/06/15 07:23:29;;;;;;;4.50;4.10;;;;;;;;;;101317;297;22591;-32
2023/06/15 07:25:57;;;;;;;5.00;4.30;;;;;;;;;;101460;297;24031;-32
2023/06/15 07:28:23;;;;;;;4.20;3.90;;;;;;;;;;101329;298;22543;-36
2023/06/15 07:30:49;;;;;;;5.40;4.70;;;;;;;;;;101311;297;22883;-32
2023/06/15 07:33:15;;;;;;;8.90;4.70;;;;;;;;;;101293;297;24287;-32
2023/06/15 07:35:41;;;;;;;3.90;3.30;;;;;;;;;;101291;297;22573;-36
2023/06/15 07:38:06;;;;;;;6.20;3.60;;;;;;;;;;101295;297;22889;-31
2023/06/15 07:40:32;;;;;;;4.00;3.40;;;;;;;;;;101362;297;24117;-36
2023/06/15 07:42:57;;;;;;;4.20;3.40;;;;;;;;;;101279;297;23013;-31
2023/06/15 07:45:23;;;;;;;3.70;3.30;;;;;;;;;;101325;297;24073;-32
2023/06/15 07:47:48;;;;;;;3.10;2.80;;;;;;;;;;101430;297;22580;-35
2023/06/15 07:50:14;;;;;;;3.60;2.70;;;;;;;;;;101355;297;22572;-35
2023/06/15 07:52:40;;;;;;;2.80;2.50;;;;;;;;;;101388;297;24354;-35
2023/06/15 07:55:05;;;;;;;3.70;3.20;;;;;;;;;;101310;297;23011;-32
2023/06/15 07:57:31;;;;;;;5.40;1.90;;;;;;;;;;101349;297;22994;-35
2023/06/15 07:59:57;;;;;;;4.00;3.40;;;;;;;;;;101322;297;22579;-35
2023/06/15 08:02:23;;;;;;;3.50;2.60;;;;;;;;;;101408;297;23127;-31
2023/06/15 08:04:48;;;;;;;2.30;2.00;;;;;;;;;;101285;297;22593;-36
2023/06/15 08:07:14;;;;;;;13.20;2.10;;;;;;;;;;101318;297;22715;-32
2023/06/15 08:09:39;;;;;;;3.00;2.00;;;;;;;;;;101365;298;22886;-31
2023/06/15 08:12:05;;;;;;;3.20;3.00;;;;;;;;;;101527;297;22578;-31
2023/06/15 08:14:31;;;;;;;3.00;2.80;;;;;;;;;;101319;297;22673;-39
2023/06/15 08:16:56;;;;;;;3.50;2.70;;;;;;;;;;101377;297;22580;-32
2023/06/15 08:19:21;;;;;;;2.90;2.70;;;;;;;;;;101478;297;24120;-32
2023/06/15 08:21:47;;;;;;;2.60;2.20;;;;;;;;;;101299;298;22991;-32
2023/06/15 08:24:12;;;;;;;3.30;2.60;;;;;;;;;;101331;297;22889;-36
2023/06/15 08:26:40;;;;;;;3.60;3.30;;;;;;;;;;101360;297;24149;-36
2023/06/15 08:29:05;;;;;;;3.60;3.20;;;;;;;;;;101266;297;23034;-32
2023/06/15 08:31:33;;;;;;;8.60;3.70;;;;;;;;;;101403;297;22885;-32
2023/06/15 08:33:59;;;;;;;5.90;3.80;;;;;;;;;;101342;297;22987;-32
2023/06/15 08:36:24;;;;;;;3.60;3.30;;;;;;;;;;101317;297;23005;-36
2023/06/15 08:38:50;;;;;;;3.00;2.70;;;;;;;;;;101348;297;22993;-32
2023/06/15 08:41:16;;;;;;;2.70;2.50;;;;;;;;;;101330;297;22889;-31
2023/06/15 08:43:41;;;;;;;5.80;3.50;;;;;;;;;;101425;297;24145;-34
2023/06/15 08:46:07;;;;;;;3.80;3.40;;;;;;;;;;101351;297;23043;-35
2023/06/15 08:48:32;;;;;;;4.00;3.60;;;;;;;;;;101276;297;24712;-31
2023/06/15 08:50:58;;;;;;;7.00;4.10;;;;;;;;;;101402;297;22955;-35
2023/06/15 08:53:24;;;;;;;7.00;4.10;;;;;;;;;;101361;297;22883;-35
2023/06/15 08:55:49;;;;;;;2.60;2.30;;;;;;;;;;101370;298;22621;-32
2023/06/15 08:58:15;;;;;;;2.80;2.60;;;;;;;;;;101415;298;23024;-31
2023/06/15 09:00:41;;;;;;;2.80;2.30;;;;;;;;;;101360;298;24213;-38
2023/06/15 09:03:08;;;;;;;3.30;3.00;;;;;;;;;;101451;297;24141;-31
2023/06/15 09:05:33;;;;;;;4.40;3.00;;;;;;;;;;101533;298;22575;-32
2023/06/15 09:08:00;;;;;;;3.30;2.40;;;;;;;;;;101400;298;24115;-31
2023/06/15 09:10:25;;;;;;;3.40;2.90;;;;;;;;;;101364;298;22676;-32
2023/06/15 09:12:52;;;;;;;3.20;2.80;;;;;;;;;;101394;298;23030;-32
2023/06/15 09:15:21;;;;;;;3.30;2.90;;;;;;;;;;101310;298;22889;-31
2023/06/15 09:17:50;;;;;;;2.60;2.30;;;;;;;;;;101485;298;22570;-35
2023/06/15 09:20:17;;;;;;;3.40;2.60;;;;;;;;;;101316;298;22592;-31
2023/06/15 09:22:43;;;;;;;3.70;2.70;;;;;;;;;;101448;297;24146;-31
2023/06/15 09:25:12;;;;;;;2.30;1.90;;;;;;;;;;101337;298;22579;-33
2023/06/15 09:27:38;;;;;;;3.00;2.70;;;;;;;;;;101417;297;22579;-30
2023/06/15 09:30:05;;;;;;;3.20;2.90;;;;;;;;;;101396;298;22577;-33
2023/06/15 09:32:30;;;;;;;4.40;2.30;;;;;;;;;;101296;298;25171;-32
2023/06/15 09:34:57;;;;;;;4.00;2.20;;;;;;;;;;101452;298;24213;-32
2023/06/15 09:37:24;;;;;;;3.20;2.60;;;;;;;;;;100883;286;806902;-37
2023/06/15 09:39:50;;;;;;;3.30;2.60;;;;;;;;;;101369;297;22574;-31
2023/06/15 09:42:16;;;;;;;3.50;2.60;;;;;;;;;;101383;298;22588;-35
2023/06/15 09:44:42;;;;;;;4.20;2.60;;;;;;;;;;101415;298;22995;-30
2023/06/15 09:47:13;;;;;;;8.10;3.60;;;;;;;;;;101368;298;22741;-35
2023/06/15 09:49:42;;;;;;;1.80;1.30;;;;;;;;;;101285;298;22758;-35
2023/06/15 09:52:07;;;;;;;7.60;2.70;;;;;;;;;;101514;298;22610;-35
2023/06/15 09:54:33;;;;;;;3.20;2.90;;;;;;;;;;101247;297;22580;-35
2023/06/15 09:56:58;;;;;;;4.70;2.50;;;;;;;;;;101251;297;22586;-34
2023/06/15 09:59:24;;;;;;;3.50;2.60;;;;;;;;;;101358;286;22689;-36
2023/06/15 10:01:50;;;;;;;3.30;2.30;;;;;;;;;;101294;298;22879;-36
2023/06/15 10:04:20;;;;;;;4.90;2.90;;;;;;;;;;101488;298;22668;-35
2023/06/15 10:06:47;;;;;;;4.00;3.60;;;;;;;;;;101405;298;22585;-36
2023/06/15 10:09:15;;;;;;;6.20;5.30;;;;;;;;;;101333;298;22627;-32
2023/06/15 10:11:41;;;;;;;4.10;3.50;;;;;;;;;;101305;297;22610;-32
2023/06/15 10:14:09;;;;;;;4.80;2.40;;;;;;;;;;101352;298;23047;-31
2023/06/15 10:16:36;;;;;;;8.90;3.50;;;;;;;;;;101425;298;24119;-35
2023/06/15 10:19:02;;;;;;;3.50;2.90;;;;;;;;;;101344;298;22672;-35
2023/06/15 10:21:28;;;;;;;3.00;2.60;;;;;;;;;;101381;298;23033;-31
2023/06/15 10:23:54;;;;;;;4.30;3.70;;;;;;;;;;101363;286;25418;-32
2023/06/15 10:26:21;;;;;;;9.40;5.30;;;;;;;;;;101452;286;25285;-36
2023/06/15 10:28:49;;;;;;;5.00;4.60;;;;;;;;;;101460;298;22813;-31
2023/06/15 10:31:30;;;;;;;7.50;5.30;;;;;;;;;;101408;298;24073;-35
2023/06/15 10:34:07;;;;;;;6.10;3.60;;;;;;;;;;101381;297;24607;-35
2023/06/15 10:36:38;;;;;;;3.30;2.90;;;;;;;;;;101324;286;24146;-31
2023/06/15 10:39:12;;;;;;;4.60;2.80;;;;;;;;;;101350;298;23043;-31
2023/06/15 10:41:37;;;;;;;6.20;3.00;;;;;;;;;;101353;298;24218;-35
2023/06/15 10:44:03;;;;;;;2.20;1.90;;;;;;;;;;101431;298;22918;-31
2023/06/15 10:46:30;;;;;;;3.00;2.10;;;;;;;;;;101300;297;22878;-31
2023/06/15 10:49:01;;;;;;;4.50;2.50;;;;;;;;;;101391;298;22605;-37
2023/06/15 10:51:29;;;;;;;1.80;1.40;;;;;;;;;;101453;297;25327;-32
2023/06/15 10:53:55;;;;;;;4.90;2.30;;;;;;;;;;101305;298;23002;-36
2023/06/15 10:56:22;;;;;;;2.40;1.60;;;;;;;;;;101420;298;22676;-37
2023/06/15 10:58:59;;;;;;;2.80;2.30;;;;;;;;;;101409;297;22607;-35
2023/06/15 11:01:29;;;;;;;6.80;2.30;;;;;;;;;;101269;298;22587;-31
2023/06/15 11:03:55;;;;;;;4.50;2.10;;;;;;;;;;101395;297;22585;-35
2023/06/15 11:06:21;;;;;;;2.20;2.00;;;;;;;;;;101317;298;24068;-32
2023/06/15 11:08:48;;;;;;;5.30;2.80;;;;;;;;;;101448;297;22580;-34
2023/06/15 11:11:14;;;;;;;12.10;3.20;;;;;;;;;;101583;297;22889;-34
2023/06/15 11:13:51;;;;;;;3.80;3.20;;;;;;;;;;101309;297;23127;-34
2023/06/15 11:16:17;;;;;;;6.10;2.80;;;;;;;;;;101343;297;22676;-37
2023/06/15 11:18:55;;;;;;;4.20;2.60;;;;;;;;;;101401;289;23120;-31
2023/06/15 11:21:26;;;;;;;4.10;2.20;;;;;;;;;;101446;297;24150;-35
2023/06/15 11:23:56;;;;;;;7.00;2.80;;;;;;;;;;101401;298;22889;-37
2023/06/15 11:26:22;;;;;;;6.80;2.30;;;;;;;;;;101375;298;22679;-34
2023/06/15 11:28:48;;;;;;;3.00;2.40;;;;;;;;;;101480;298;22587;-30
2023/06/15 11:31:16;;;;;;;4.50;2.70;;;;;;;;;;101493;298;22888;-34
2023/06/15 11:33:41;;;;;;;9.50;3.40;;;;;;;;;;101254;286;23032;-35
2023/06/15 11:36:07;;;;;;;12.70;3.00;;;;;;;;;;101349;297;24147;-32
2023/06/15 11:38:33;;;;;;;3.50;2.70;;;;;;;;;;101476;297;22671;-36
2023/06/15 11:41:02;;;;;;;3.90;2.60;;;;;;;;;;101376;297;24146;-36
2023/06/15 11:43:32;;;;;;;10.60;2.30;;;;;;;;;;101472;297;24213;-36
2023/06/15 11:45:57;;;;;;;3.70;3.10;;;;;;;;;;101365;297;24148;-32
2023/06/15 11:48:24;;;;;;;5.10;2.90;;;;;;;;;;101258;298;24071;-36
2023/06/15 11:50:50;;;;;;;3.30;2.00;;;;;;;;;;101424;297;22846;-35
2023/06/15 11:53:18;;;;;;;3.00;2.60;;;;;;;;;;101328;297;22529;-32
2023/06/15 11:55:44;;;;;;;2.80;2.20;;;;;;;;;;101426;297;22883;-31
2023/06/15 11:58:10;;;;;;;4.20;2.20;;;;;;;;;;101336;297;22991;-35
2023/06/15 12:00:36;;;;;;;2.00;1.50;;;;;;;;;;101240;297;22667;-31
2023/06/15 12:03:08;;;;;;;1.40;1.00;;;;;;;;;;101370;297;22888;-33
2023/06/15 12:05:34;;;;;;;1.50;1.30;;;;;;;;;;101474;297;22885;-38
2023/06/15 12:08:00;;;;;;;1.70;1.00;;;;;;;;;;101325;297;22720;-36
2023/06/15 12:10:26;;;;;;;1.70;1.00;;;;;;;;;;101215;288;22998;-33
2023/06/15 12:12:51;;;;;;;1.10;0.80;;;;;;;;;;101346;297;24207;-33
2023/06/15 12:15:17;;;;;;;0.50;0.40;;;;;;;;;;101268;297;22846;-33
2023/06/15 12:17:42;;;;;;;0.60;0.40;;;;;;;;;;101442;297;22580;-37
2023/06/15 12:20:09;;;;;;;0.40;0.30;;;;;;;;;;101354;297;22674;-33
2023/06/15 12:22:35;;;;;;;2.00;0.60;;;;;;;;;;101288;297;22813;-37
2023/06/15 12:25:01;;;;;;;2.00;0.80;;;;;;;;;;101501;297;22586;-34
2023/06/15 12:27:29;;;;;;;0.80;0.70;;;;;;;;;;101344;297;22886;-35
2023/06/15 12:29:55;;;;;;;1.30;1.00;;;;;;;;;;101442;297;22589;-32
2023/06/15 12:32:22;;;;;;;1.10;0.80;;;;;;;;;;101295;297;22616;-36
2023/06/15 13:15:09;;;;;;;1.10;1.00;;;;;;;24.83;55.72;99410.98;101073;294;558212;-32
2023/06/15 13:17:36;;;;;;;2.00;1.60;;;;;;;-97.39;9.22;19879.62;98220;296;1003313;-35
2023/06/15 13:20:04;;;;;;;2.50;1.00;;;;;;;-128.00;-1.00;-1.00;97836;295;1003502;-35
2023/06/15 13:22:30;;;;;;;1.20;1.00;;;;;;;-128.00;-1.00;-1.00;97955;288;1003985;-35
2023/06/15 13:24:56;;;;;;;2.10;1.20;;;;;;;-128.00;-1.00;-1.00;97976;295;1002956;-31
2023/06/15 13:27:21;;;;;;;1.20;1.10;;;;;;;-128.00;-1.00;-1.00;97933;295;1002894;-32
2023/06/15 13:29:47;;;;;;;3.30;1.50;;;;;;;-128.00;-1.00;-1.00;97917;295;1003364;-32
2023/06/15 13:32:12;;;;;;;2.70;1.30;;;;;;;-128.00;-1.00;-1.00;97901;295;1003029;-35
2023/06/15 13:34:40;;;;;;;2.10;1.00;;;;;;;-128.00;-1.00;-1.00;97877;295;1003686;-35
2023/06/15 13:37:05;;;;;;;2.40;1.90;;;;;;;-128.00;-1.00;-1.00;97921;295;1003332;-36
2023/06/15 13:39:31;;;;;;;2.50;2.10;;;;;;;-128.00;-1.00;-1.00;83296;295;3003779;-32
2023/06/15 13:41:57;;;;;;;1.70;1.20;;;;;;;-128.00;-1.00;-1.00;18923;295;7504987;-33
2023/06/15 13:44:24;;;;;;;1.40;1.00;;;;;;;-128.00;-1.00;-1.00;18511;287;7504814;-32
2023/06/15 13:46:50;;;;;;;1.80;1.10;;;;;;;-128.00;-1.00;-1.00;18925;295;7506058;-32
2023/06/15 13:49:16;;;;;;;1.60;1.40;;;;;;;-128.00;-1.00;-1.00;18891;297;7506052;-36
2023/06/15 13:51:42;;;;;;;1.70;1.60;;;;;;;-128.00;-1.00;-1.00;18911;295;7505884;-31
2023/06/15 13:54:08;;;;;;;2.60;2.40;;;;;;;-128.00;-1.00;-1.00;18873;301;7504394;-36
2023/06/15 13:56:35;;;;;;;2.10;1.80;;;;;;;-128.00;-1.00;-1.00;18888;336;7504956;-33
2023/06/15 13:59:03;;;;;;;2.20;1.90;;;;;;;-128.00;-1.00;-1.00;18901;295;7504326;-32
2023/06/15 14:01:29;;;;;;;1.70;1.20;;;;;;;-128.00;-1.00;-1.00;18487;287;7506048;-36
2023/06/15 14:03:55;;;;;;;1.00;0.80;;;;;;;-128.00;-1.00;-1.00;18468;295;7504622;-32
2023/06/15 14:06:21;;;;;;;1.10;0.90;;;;;;;-128.00;-1.00;-1.00;18493;295;7504669;-32
2023/06/15 14:08:47;;;;;;;8.60;2.20;;;;;;;-128.00;-1.00;-1.00;18496;295;7505835;-32
2023/06/15 14:11:16;;;;;;;2.90;1.30;;;;;;;-128.00;-1.00;-1.00;18483;295;7504961;-36
2023/06/15 14:13:48;;;;;;;1.50;1.40;;;;;;;-128.00;-1.00;-1.00;18490;295;7504929;-32
2023/06/15 14:16:15;;;;;;;2.40;1.60;;;;;;;-128.00;-1.00;-1.00;18506;295;7506421;-32
2023/06/15 14:18:41;;;;;;;7.20;1.90;;;;;;;-128.00;-1.00;-1.00;18483;297;7504455;-32
2023/06/15 14:21:07;;;;;;;1.40;1.30;;;;;;;-128.00;-1.00;-1.00;18473;288;7504310;-32
2023/06/15 14:23:33;;;;;;;3.50;2.20;;;;;;;-128.00;-1.00;-1.00;18848;295;7504652;-33
2023/06/15 14:26:00;;;;;;;4.40;2.10;;;;;;;-128.00;-1.00;-1.00;18453;288;7505011;-36
2023/06/15 14:28:25;;;;;;;2.40;1.50;;;;;;;-128.00;-1.00;-1.00;18444;298;7505108;-36
2023/06/15 14:30:51;;;;;;;2.80;2.20;;;;;;;-128.00;-1.00;-1.00;18449;295;7504842;-36
2023/06/15 14:33:18;;;;;;;4.80;2.40;;;;;;;-128.00;-1.00;-1.00;18889;284;7505441;-32
2023/06/15 14:35:44;;;;;;;2.10;1.90;;;;;;;-128.00;-1.00;-1.00;18471;288;7504295;-32
2023/06/15 14:38:10;;;;;;;3.10;2.40;;;;;;;-128.00;-1.00;-1.00;18453;347;7504730;-32
2023/06/15 14:40:35;;;;;;;2.70;2.40;;;;;;;-128.00;-1.00;-1.00;18453;288;7504806;-32
2023/06/15 14:43:01;;;;;;;2.50;2.30;;;;;;;-128.00;-1.00;-1.00;18468;347;7505574;-32
2023/06/15 14:45:26;;;;;;;5.90;2.70;;;;;;;-128.00;-1.00;-1.00;18462;288;7504852;-32
2023/06/15 14:47:52;;;;;;;2.50;2.10;;;;;;;-128.00;-1.00;-1.00;18482;288;7504771;-32
2023/06/15 14:50:19;;;;;;;5.50;2.90;;;;;;;-128.00;-1.00;-1.00;18469;295;7507277;-36
2023/06/15 14:52:45;;;;;;;2.60;2.10;;;;;;;-128.00;-1.00;-1.00;18453;295;7504610;-36
2023/06/15 14:55:11;;;;;;;3.90;2.40;;;;;;;-128.00;-1.00;-1.00;18492;295;7504608;-35
2023/06/15 14:57:37;;;;;;;2.40;2.20;;;;;;;-128.00;-1.00;-1.00;18451;348;7505123;-36
2023/06/15 15:00:06;;;;;;;2.60;2.30;;;;;;;-128.00;-1.00;-1.00;18481;288;7506190;-35
2023/06/15 15:02:33;;;;;;;7.80;2.70;;;;;;;-128.00;-1.00;-1.00;18479;295;7505134;-36
2023/06/15 15:04:59;;;;;;;1.90;1.70;;;;;;;-128.00;-1.00;-1.00;18491;295;7505125;-32
2023/06/15 15:07:24;;;;;;;6.90;3.40;;;;;;;-128.00;-1.00;-1.00;18470;296;7505029;-36